createdAt,value
2023-06-27T00:02:24.046Z,43.64
2023-06-27T00:04:51.204Z,43.63
2023-06-27T00:07:19.724Z,43.73
2023-06-27T00:09:46.970Z,43.69
2023-06-27T00:12:14.119Z,43.46
2023-06-27T00:14:41.246Z,43.58
2023-06-27T00:17:08.407Z,43.43
2023-06-27T00:19:35.541Z,43.34
2023-06-27T00:22:03.574Z,43.69
2023-06-27T00:24:33.827Z,43.48
2023-06-27T00:27:00.937Z,43.50
2023-06-27T00:29:28.062Z,43.85
2023-06-27T00:31:55.939Z,43.70
2023-06-27T00:34:23.182Z,43.81
2023-06-27T00:36:50.337Z,43.79
2023-06-27T00:39:17.474Z,43.68
2023-06-27T00:41:45.940Z,43.80
2023-06-27T00:44:13.053Z,43.77
2023-06-27T00:46:42.062Z,43.63
2023-06-27T00:49:11.810Z,43.69
2023-06-27T00:51:40.300Z,43.85
2023-06-27T00:54:08.630Z,43.61
2023-06-27T00:56:36.383Z,43.52
2023-06-27T00:59:06.305Z,43.26
2023-06-27T01:01:33.670Z,43.35
2023-06-27T01:04:00.976Z,43.68
2023-06-27T01:06:34.926Z,43.24
2023-06-27T01:09:06.351Z,43.36
2023-06-27T01:11:40.816Z,43.45
2023-06-27T01:14:11.189Z,43.44
2023-06-27T01:16:39.875Z,43.19
2023-06-27T01:19:09.208Z,43.29
2023-06-27T01:21:37.922Z,43.42
2023-06-27T01:24:07.481Z,43.18
2023-06-27T01:26:35.152Z,43.25
2023-06-27T01:29:02.399Z,43.12
2023-06-27T01:31:36.017Z,43.52
2023-06-27T01:34:04.686Z,43.54
2023-06-27T01:36:37.967Z,43.64
2023-06-27T01:39:08.889Z,43.32
2023-06-27T01:41:38.376Z,43.29
2023-06-27T01:44:08.017Z,43.45
2023-06-27T01:46:36.760Z,42.84
2023-06-27T01:49:04.869Z,43.00
2023-06-27T01:51:32.259Z,43.05
2023-06-27T01:53:59.742Z,43.21
2023-06-27T01:56:28.290Z,43.13
2023-06-27T01:58:55.447Z,42.90
2023-06-27T02:01:22.799Z,43.17
2023-06-27T02:03:50.394Z,42.74
2023-06-27T02:06:17.621Z,42.82
2023-06-27T02:08:44.870Z,42.99
2023-06-27T02:11:12.027Z,42.89
2023-06-27T02:13:40.499Z,43.03
2023-06-27T02:16:07.636Z,42.94
2023-06-27T02:18:34.768Z,42.86
2023-06-27T02:21:01.895Z,43.22
2023-06-27T02:23:29.014Z,43.09
2023-06-27T02:25:56.203Z,43.09
2023-06-27T02:28:23.312Z,43.13
2023-06-27T02:30:51.909Z,43.35
2023-06-27T02:33:19.065Z,43.03
2023-06-27T02:35:46.165Z,43.25
2023-06-27T02:38:13.286Z,43.30
2023-06-27T02:40:40.443Z,42.89
2023-06-27T02:43:07.591Z,43.18
2023-06-27T02:45:34.703Z,43.28
2023-06-27T02:48:03.412Z,43.37
2023-06-27T02:50:30.616Z,43.00
2023-06-27T02:52:57.770Z,43.21
2023-06-27T02:55:24.900Z,43.23
2023-06-27T02:57:52.043Z,42.97
2023-06-27T03:00:19.574Z,42.94
2023-06-27T03:02:46.831Z,43.29
2023-06-27T03:05:15.468Z,43.42
2023-06-27T03:07:42.621Z,43.29
2023-06-27T03:10:10.731Z,43.24
2023-06-27T03:12:37.965Z,42.92
2023-06-27T03:15:06.056Z,43.17
2023-06-27T03:17:33.713Z,43.10
2023-06-27T03:20:00.893Z,43.27
2023-06-27T03:22:29.350Z,43.19
2023-06-27T03:24:56.501Z,43.37
2023-06-27T03:27:24.060Z,43.07
2023-06-27T03:29:51.225Z,43.10
2023-06-27T03:32:18.423Z,43.26
2023-06-27T03:34:45.585Z,42.96
2023-06-27T03:37:12.719Z,43.09
2023-06-27T03:39:41.244Z,42.84
2023-06-27T03:42:08.495Z,43.33
2023-06-27T03:44:35.798Z,42.94
2023-06-27T03:47:03.239Z,43.20
2023-06-27T03:49:30.388Z,43.08
2023-06-27T03:51:57.557Z,43.17
2023-06-27T03:54:24.880Z,43.29
2023-06-27T03:56:53.698Z,43.32
2023-06-27T03:59:20.850Z,44.05
2023-06-27T04:01:48.012Z,44.50
2023-06-27T04:04:15.504Z,44.31
2023-06-27T04:06:42.866Z,43.67
2023-06-27T04:09:10.048Z,43.06
2023-06-27T04:11:37.224Z,42.41
2023-06-27T04:14:05.737Z,41.40
2023-06-27T04:16:32.953Z,41.10
2023-06-27T04:19:00.200Z,39.67
2023-06-27T04:21:27.457Z,39.13
2023-06-27T04:23:54.624Z,39.17
2023-06-27T04:26:21.797Z,38.76
2023-06-27T04:28:48.913Z,38.33
2023-06-27T04:31:17.529Z,37.88
2023-06-27T04:33:44.711Z,38.00
2023-06-27T04:36:12.098Z,37.37
2023-06-27T04:38:39.578Z,37.40
2023-06-27T04:41:07.471Z,37.75
2023-06-27T04:43:37.097Z,37.27
2023-06-27T04:46:04.932Z,37.85
2023-06-27T04:48:33.711Z,38.24
2023-06-27T04:51:03.620Z,38.05
2023-06-27T04:53:31.540Z,37.45
2023-06-27T04:55:58.997Z,38.01
2023-06-27T04:58:26.158Z,37.69
2023-06-27T05:00:53.577Z,38.45
2023-06-27T05:03:20.880Z,37.57
2023-06-27T05:05:49.609Z,37.17
2023-06-27T05:08:16.754Z,37.53
2023-06-27T05:10:44.005Z,37.91
2023-06-27T05:13:12.834Z,37.47
2023-06-27T05:15:40.527Z,36.80
2023-06-27T05:18:23.733Z,37.50
2023-06-27T05:20:52.648Z,36.93
2023-06-27T05:23:19.787Z,37.03
2023-06-27T05:25:46.915Z,37.41
2023-06-27T05:28:14.397Z,40.39
2023-06-27T05:30:41.738Z,37.24
2023-06-27T05:33:08.980Z,37.88
2023-06-27T05:35:36.215Z,37.82
2023-06-27T05:38:05.634Z,38.06
2023-06-27T05:40:33.103Z,37.70
2023-06-27T05:43:00.325Z,37.31
2023-06-27T05:45:27.482Z,37.53
2023-06-27T05:47:54.676Z,38.31
2023-06-27T05:50:21.907Z,37.93
2023-06-27T05:52:49.143Z,37.67
2023-06-27T05:55:17.776Z,37.17
2023-06-27T05:57:44.976Z,37.92
2023-06-27T06:00:13.050Z,38.35
2023-06-27T06:02:42.739Z,37.04
2023-06-27T06:05:10.806Z,37.07
2023-06-27T06:07:41.055Z,36.64
2023-06-27T06:10:09.126Z,36.57
2023-06-27T06:12:37.800Z,36.53
2023-06-27T06:15:06.083Z,36.14
2023-06-27T06:17:33.271Z,36.61
2023-06-27T06:20:00.705Z,36.24
2023-06-27T06:22:27.861Z,36.23
2023-06-27T06:24:54.989Z,36.31
2023-06-27T06:27:22.345Z,36.63
2023-06-27T06:29:50.887Z,36.73
2023-06-27T06:32:18.115Z,36.50
2023-06-27T06:34:45.340Z,36.26
2023-06-27T06:37:12.518Z,36.39
2023-06-27T06:39:39.655Z,36.37
2023-06-27T06:42:07.078Z,36.61
2023-06-27T06:44:34.215Z,36.70
2023-06-27T06:47:02.779Z,37.16
2023-06-27T06:49:30.444Z,36.66
2023-06-27T06:51:57.566Z,36.97
2023-06-27T06:54:24.699Z,37.45
2023-06-27T06:56:51.852Z,36.74
2023-06-27T06:59:19.052Z,39.94
2023-06-27T07:01:46.289Z,38.35
2023-06-27T07:04:14.926Z,38.43
2023-06-27T07:06:42.144Z,36.73
2023-06-27T07:09:09.329Z,37.04
2023-06-27T07:11:36.530Z,38.53
2023-06-27T07:14:03.709Z,39.65
2023-06-27T07:16:30.866Z,37.87
2023-06-27T07:18:58.049Z,36.62
2023-06-27T07:21:26.538Z,36.72
2023-06-27T07:23:53.883Z,37.79
2023-06-27T07:26:21.240Z,37.19
2023-06-27T07:28:48.412Z,37.97
2023-06-27T07:31:15.625Z,37.32
2023-06-27T07:33:42.968Z,37.13
2023-06-27T07:36:10.105Z,38.06
2023-06-27T07:38:38.605Z,37.72
2023-06-27T07:41:05.902Z,38.46
2023-06-27T07:43:33.070Z,37.57
2023-06-27T07:46:00.244Z,38.56
2023-06-27T07:48:27.385Z,37.66
2023-06-27T07:50:54.523Z,38.65
2023-06-27T07:53:21.669Z,38.65
2023-06-27T07:55:50.199Z,38.77
2023-06-27T07:58:17.328Z,38.44
2023-06-27T08:00:44.486Z,38.74
2023-06-27T08:03:11.723Z,38.39
2023-06-27T08:05:39.031Z,38.36
2023-06-27T08:08:06.244Z,38.18
2023-06-27T08:10:33.438Z,37.90
2023-06-27T08:13:01.909Z,38.25
2023-06-27T08:15:29.186Z,38.12
2023-06-27T08:17:56.439Z,38.07
2023-06-27T08:20:23.637Z,37.65
2023-06-27T08:22:50.774Z,37.72
2023-06-27T08:25:18.116Z,37.57
2023-06-27T08:27:45.285Z,37.40
2023-06-27T08:30:14.043Z,37.60
2023-06-27T08:32:41.304Z,37.78
2023-06-27T08:35:08.784Z,37.75
2023-06-27T08:37:35.952Z,37.46
2023-06-27T08:40:03.649Z,37.81
2023-06-27T08:42:31.340Z,38.07
2023-06-27T08:44:58.763Z,39.28
2023-06-27T08:47:30.125Z,37.96
2023-06-27T08:50:02.663Z,38.14
2023-06-27T08:52:33.250Z,37.73
2023-06-27T08:55:04.358Z,37.39
2023-06-27T08:57:33.128Z,37.61
2023-06-27T09:00:03.492Z,37.26
2023-06-27T09:02:33.692Z,37.21
2023-06-27T09:05:01.507Z,37.54
2023-06-27T09:07:29.236Z,37.73
2023-06-27T09:09:56.719Z,37.14
2023-06-27T09:12:25.306Z,37.46
2023-06-27T09:14:52.584Z,37.60
2023-06-27T09:17:20.412Z,37.38
2023-06-27T09:19:48.975Z,37.41
2023-06-27T09:22:16.645Z,37.35
2023-06-27T09:24:43.825Z,36.80
2023-06-27T09:27:29.120Z,37.15
2023-06-27T09:29:56.380Z,37.12
2023-06-27T09:32:23.567Z,37.68
2023-06-27T09:34:52.175Z,36.92
2023-06-27T09:39:51.119Z,36.33
2023-06-27T09:42:18.237Z,36.09
2023-06-27T09:44:45.484Z,37.87
2023-06-27T09:47:12.668Z,36.28
2023-06-27T09:49:41.150Z,35.79
2023-06-27T09:52:10.931Z,36.01
2023-06-27T09:54:42.289Z,35.66
2023-06-27T09:57:13.756Z,35.94
2023-06-27T09:59:40.926Z,36.13
2023-06-27T10:02:13.113Z,35.99
2023-06-27T10:04:40.924Z,36.16
2023-06-27T10:07:08.499Z,35.63
2023-06-27T10:09:38.674Z,35.61
2023-06-27T10:12:07.402Z,35.61
2023-06-27T10:14:34.890Z,35.17
2023-06-27T10:17:02.685Z,34.98
2023-06-27T10:19:32.621Z,35.35
2023-06-27T10:22:01.538Z,35.61
2023-06-27T10:24:29.933Z,35.17
2023-06-27T10:27:01.043Z,35.28
2023-06-27T10:29:32.124Z,35.12
2023-06-27T10:31:59.495Z,34.65
2023-06-27T10:34:26.823Z,35.21
2023-06-27T10:37:01.006Z,34.73
2023-06-27T10:39:29.571Z,34.67
2023-06-27T10:42:12.430Z,34.94
2023-06-27T10:45:01.399Z,34.51
2023-06-27T10:47:33.910Z,34.49
2023-06-27T10:50:04.781Z,34.79
2023-06-27T10:52:31.936Z,34.82
2023-06-27T10:55:18.938Z,34.85
2023-06-27T10:57:50.284Z,34.63
2023-06-27T11:00:24.654Z,34.67
2023-06-27T11:02:52.181Z,34.96
2023-06-27T11:05:20.297Z,34.73
2023-06-27T11:07:54.639Z,35.04
2023-06-27T11:10:26.790Z,34.67
2023-06-27T11:13:13.926Z,35.17
2023-06-27T11:15:42.158Z,35.03
2023-06-27T11:18:10.126Z,35.22
2023-06-27T11:20:37.507Z,35.47
2023-06-27T11:23:04.684Z,35.44
2023-06-27T11:25:36.488Z,35.04
2023-06-27T11:28:04.063Z,34.99
2023-06-27T11:30:32.662Z,34.59
2023-06-27T11:33:00.301Z,34.79
2023-06-27T11:35:27.804Z,34.79
2023-06-27T11:37:55.198Z,34.67
2023-06-27T11:40:22.484Z,37.71
2023-06-27T11:42:49.842Z,35.37
2023-06-27T11:45:17.034Z,35.28
2023-06-27T11:47:46.317Z,34.29
2023-06-27T11:50:14.173Z,34.93
2023-06-27T11:52:41.310Z,34.28
2023-06-27T11:55:08.993Z,34.58
2023-06-27T11:57:46.137Z,35.19
2023-06-27T12:00:27.442Z,34.96
2023-06-27T12:02:57.978Z,34.79
2023-06-27T12:05:26.071Z,33.92
2023-06-27T12:08:01.207Z,33.80
2023-06-27T12:10:28.995Z,34.62
2023-06-27T12:12:56.143Z,33.37
2023-06-27T12:15:23.465Z,33.23
2023-06-27T12:17:59.741Z,33.96
2023-06-27T12:20:40.119Z,34.43
2023-06-27T12:23:07.528Z,34.54
2023-06-27T12:25:34.749Z,34.67
2023-06-27T12:28:02.592Z,34.58
2023-06-27T12:30:29.759Z,34.47
2023-06-27T12:32:58.390Z,33.94
2023-06-27T12:35:25.640Z,33.40
2023-06-27T12:37:53.045Z,33.78
2023-06-27T12:40:20.363Z,33.45
2023-06-27T12:42:47.528Z,34.52
2023-06-27T12:45:14.801Z,33.32
2023-06-27T12:47:41.979Z,33.33
2023-06-27T12:50:11.906Z,33.55
2023-06-27T12:52:39.044Z,33.61
2023-06-27T12:55:07.709Z,33.34
2023-06-27T12:57:35.020Z,33.08
2023-06-27T13:00:02.175Z,32.94
2023-06-27T13:02:29.418Z,33.19
2023-06-27T13:04:57.335Z,33.10
2023-06-27T13:07:25.919Z,32.89
2023-06-27T13:09:53.123Z,32.90
2023-06-27T13:12:20.354Z,32.98
2023-06-27T13:14:47.482Z,32.74
2023-06-27T13:17:14.796Z,32.82
2023-06-27T13:19:42.136Z,32.59
2023-06-27T13:22:09.334Z,32.96
2023-06-27T13:24:38.035Z,32.73
2023-06-27T13:27:05.598Z,32.90
2023-06-27T13:29:32.760Z,33.17
2023-06-27T13:32:00.028Z,32.80
2023-06-27T13:34:27.259Z,32.94
2023-06-27T13:36:54.425Z,32.82
2023-06-27T13:39:21.545Z,32.71
2023-06-27T13:41:50.085Z,32.71
2023-06-27T13:44:17.221Z,32.68
2023-06-27T13:46:44.386Z,32.36
2023-06-27T13:49:11.620Z,32.34
2023-06-27T13:51:38.936Z,32.03
2023-06-27T13:54:06.131Z,31.91
2023-06-27T13:56:35.416Z,32.41
2023-06-27T13:59:05.558Z,31.80
2023-06-27T14:01:32.741Z,32.00
2023-06-27T14:04:00.065Z,31.88
2023-06-27T14:06:27.398Z,31.74
2023-06-27T14:08:54.564Z,31.23
2023-06-27T14:11:21.967Z,32.63
2023-06-27T14:13:49.518Z,32.14
2023-06-27T14:16:18.652Z,33.39
2023-06-27T14:18:46.197Z,33.44
2023-06-27T14:21:14.028Z,34.40
2023-06-27T14:23:41.505Z,34.32
2023-06-27T14:26:09.375Z,34.37
2023-06-27T14:28:36.522Z,33.96
2023-06-27T14:31:03.757Z,33.90
2023-06-27T14:33:32.282Z,33.19
2023-06-27T14:36:00.042Z,33.21
2023-06-27T14:38:27.205Z,33.97
2023-06-27T14:40:54.373Z,33.74
2023-06-27T14:43:21.501Z,32.75
2023-06-27T14:45:48.809Z,33.06
2023-06-27T14:48:16.002Z,32.98
2023-06-27T14:50:44.713Z,33.30
2023-06-27T14:53:12.020Z,33.18
2023-06-27T14:55:39.254Z,33.45
2023-06-27T14:58:06.421Z,33.77
2023-06-27T15:00:33.604Z,33.71
2023-06-27T15:03:00.867Z,33.23
2023-06-27T15:05:28.154Z,33.45
2023-06-27T15:07:56.686Z,33.11
2023-06-27T15:10:24.284Z,32.68
2023-06-27T15:12:51.435Z,32.63
2023-06-27T15:15:18.680Z,32.57
2023-06-27T15:17:45.853Z,32.85
2023-06-27T15:20:13.333Z,32.79
2023-06-27T15:22:40.537Z,32.38
2023-06-27T15:25:09.753Z,32.25
2023-06-27T15:27:36.886Z,32.47
2023-06-27T15:30:04.640Z,32.56
2023-06-27T15:32:31.851Z,32.46
2023-06-27T15:34:59.021Z,32.40
2023-06-27T15:37:26.162Z,32.84
2023-06-27T15:39:53.354Z,36.29
2023-06-27T15:42:22.560Z,38.38
2023-06-27T15:44:49.844Z,39.47
2023-06-27T15:47:17.149Z,42.07
2023-06-27T15:49:47.147Z,38.58
2023-06-27T15:52:14.545Z,39.47
2023-06-27T15:54:41.718Z,38.89
2023-06-27T15:57:08.895Z,38.79
2023-06-27T15:59:37.392Z,40.27
2023-06-27T16:02:05.103Z,39.53
2023-06-27T16:04:32.305Z,38.65
2023-06-27T16:06:59.566Z,50.40
2023-06-27T16:09:26.747Z,48.24
2023-06-27T16:11:54.085Z,41.61
2023-06-27T16:14:21.238Z,44.04
2023-06-27T16:16:50.280Z,38.91
2023-06-27T16:19:17.426Z,41.45
2023-06-27T16:21:44.623Z,37.27
2023-06-27T16:24:11.790Z,35.85
2023-06-27T16:26:38.947Z,35.83
2023-06-27T16:29:06.218Z,34.98
2023-06-27T16:31:33.431Z,33.89
2023-06-27T16:34:01.998Z,33.48
2023-06-27T16:36:29.164Z,33.86
2023-06-27T16:38:56.441Z,33.38
2023-06-27T16:41:23.734Z,33.08
2023-06-27T16:43:50.863Z,33.65
2023-06-27T16:46:19.713Z,32.69
2023-06-27T16:48:49.900Z,33.21
2023-06-27T16:51:19.086Z,33.04
2023-06-27T16:53:46.258Z,32.77
2023-06-27T16:56:13.468Z,32.68
2023-06-27T16:58:40.608Z,32.12
2023-06-27T17:01:07.758Z,32.07
2023-06-27T17:03:35.041Z,32.47
2023-06-27T17:06:02.415Z,32.39
2023-06-27T17:08:30.951Z,32.11
2023-06-27T17:10:58.110Z,32.37
2023-06-27T17:13:25.282Z,32.45
2023-06-27T17:15:52.433Z,32.33
2023-06-27T17:18:19.678Z,32.42
2023-06-27T17:20:47.037Z,32.72
2023-06-27T17:23:14.210Z,32.40
2023-06-27T17:25:43.072Z,32.33
2023-06-27T17:28:10.422Z,32.14
2023-06-27T17:30:37.692Z,32.70
2023-06-27T17:33:04.911Z,32.27
2023-06-27T17:35:32.101Z,32.03
2023-06-27T17:37:59.222Z,31.91
2023-06-27T17:40:26.576Z,32.05
2023-06-27T17:42:55.155Z,39.05
2023-06-27T17:45:23.652Z,35.54
2023-06-27T17:47:50.860Z,35.36
2023-06-27T17:50:18.027Z,35.81
2023-06-27T17:52:45.181Z,36.02
2023-06-27T17:55:12.508Z,35.66
2023-06-27T17:57:39.774Z,35.33
2023-06-27T18:00:09.852Z,35.64
2023-06-27T18:02:37.260Z,35.54
2023-06-27T18:05:05.136Z,36.48
2023-06-27T18:07:37.991Z,35.70
2023-06-27T18:10:07.670Z,35.93
2023-06-27T18:12:34.896Z,36.00
2023-06-27T18:15:04.694Z,35.33
2023-06-27T18:17:33.268Z,35.70
2023-06-27T18:20:00.437Z,35.55
2023-06-27T18:22:27.580Z,35.53
2023-06-27T18:24:54.781Z,35.49
2023-06-27T18:27:22.048Z,35.78
2023-06-27T18:29:49.410Z,36.05
2023-06-27T18:32:17.133Z,36.57
2023-06-27T18:34:45.656Z,36.56
2023-06-27T18:37:12.807Z,36.70
2023-06-27T18:39:39.995Z,36.49
2023-06-27T18:42:07.592Z,36.01
2023-06-27T18:44:34.750Z,36.15
2023-06-27T18:47:01.916Z,36.42
2023-06-27T18:49:30.102Z,36.40
2023-06-27T18:51:58.644Z,36.18
2023-06-27T18:54:25.895Z,36.25
2023-06-27T18:56:53.174Z,35.88
2023-06-27T18:59:20.302Z,36.36
2023-06-27T19:01:47.564Z,36.13
2023-06-27T19:04:14.957Z,36.36
2023-06-27T19:06:42.564Z,35.93
2023-06-27T19:09:11.156Z,36.29
2023-06-27T19:11:38.289Z,36.16
2023-06-27T19:14:10.385Z,36.50
2023-06-27T19:16:40.654Z,36.81
2023-06-27T19:19:08.567Z,36.89
2023-06-27T19:21:36.208Z,36.55
2023-06-27T19:24:03.805Z,36.87
2023-06-27T19:26:32.729Z,36.69
2023-06-27T19:28:59.866Z,37.25
2023-06-27T19:31:27.089Z,37.26
2023-06-27T19:33:54.466Z,37.45
2023-06-27T19:36:21.846Z,37.57
2023-06-27T19:38:49.658Z,37.56
2023-06-27T19:41:16.778Z,37.48
2023-06-27T19:43:45.271Z,37.30
2023-06-27T19:46:12.442Z,37.76
2023-06-27T19:48:39.572Z,37.30
2023-06-27T19:51:06.703Z,37.45
2023-06-27T19:53:33.849Z,37.34
2023-06-27T19:56:00.965Z,37.48
2023-06-27T19:58:28.066Z,37.35
2023-06-27T20:00:56.534Z,37.26
2023-06-27T20:03:23.861Z,37.32
2023-06-27T20:05:51.144Z,37.70
2023-06-27T20:08:19.722Z,38.76
2023-06-27T20:10:47.055Z,39.48
2023-06-27T20:13:14.370Z,38.98
2023-06-27T20:15:41.629Z,39.38
2023-06-27T20:18:11.318Z,38.25
2023-06-27T20:20:39.197Z,38.55
2023-06-27T20:23:06.490Z,39.16
2023-06-27T20:25:33.594Z,38.52
2023-06-27T20:28:00.692Z,38.82
2023-06-27T20:30:27.823Z,38.82
2023-06-27T20:32:54.990Z,38.61
2023-06-27T20:35:23.662Z,38.54
2023-06-27T20:37:50.992Z,38.19
2023-06-27T20:40:18.261Z,38.48
2023-06-27T20:42:45.428Z,38.79
2023-06-27T20:45:12.624Z,38.38
2023-06-27T20:47:39.793Z,38.39
2023-06-27T20:50:08.773Z,38.73
2023-06-27T20:52:37.294Z,38.69
2023-06-27T20:55:05.000Z,38.94
2023-06-27T20:57:32.147Z,38.81
2023-06-27T20:59:59.317Z,39.27
2023-06-27T21:02:26.549Z,39.28
2023-06-27T21:04:54.525Z,39.43
2023-06-27T21:07:21.728Z,39.44
2023-06-27T21:09:50.276Z,39.60
2023-06-27T21:12:18.117Z,39.36
2023-06-27T21:14:46.259Z,39.27
2023-06-27T21:17:15.305Z,39.56
2023-06-27T21:19:42.454Z,39.13
2023-06-27T21:22:09.677Z,39.17
2023-06-27T21:24:36.780Z,39.44
2023-06-27T21:27:06.143Z,39.48
2023-06-27T21:29:33.391Z,39.24
2023-06-27T21:32:00.558Z,39.41
2023-06-27T21:34:27.754Z,39.30
2023-06-27T21:36:54.905Z,39.40
2023-06-27T21:39:22.008Z,39.58
2023-06-27T21:41:49.143Z,39.20
2023-06-27T21:44:17.793Z,39.14
2023-06-27T21:46:44.918Z,39.23
2023-06-27T21:49:12.045Z,39.27
2023-06-27T21:51:39.193Z,39.21
2023-06-27T21:54:06.377Z,39.12
2023-06-27T21:56:33.498Z,39.62
2023-06-27T21:59:00.661Z,39.28
2023-06-27T22:01:29.205Z,39.26
2023-06-27T22:03:56.472Z,39.19
2023-06-27T22:06:34.101Z,39.25
2023-06-27T22:09:09.586Z,39.38
2023-06-27T22:11:36.773Z,39.41
2023-06-27T22:14:03.996Z,39.24
2023-06-27T22:16:32.489Z,39.27
2023-06-27T22:18:59.880Z,39.65
2023-06-27T22:21:27.024Z,39.57
2023-06-27T22:23:54.372Z,40.01
2023-06-27T22:26:21.616Z,39.54
2023-06-27T22:28:48.803Z,39.86
2023-06-27T22:31:17.101Z,39.91
2023-06-27T22:33:45.638Z,39.86
2023-06-27T22:36:12.812Z,39.97
2023-06-27T22:38:39.973Z,39.71
2023-06-27T22:41:07.119Z,39.80
2023-06-27T22:43:34.224Z,39.64
2023-06-27T22:46:01.333Z,46.84
2023-06-27T22:48:28.660Z,42.92
2023-06-27T22:50:57.140Z,41.72
2023-06-27T22:53:24.298Z,41.58
2023-06-27T22:55:51.689Z,41.07
2023-06-27T22:58:18.809Z,40.96
2023-06-27T23:00:46.046Z,41.26
2023-06-27T23:20:32.763Z,41.06
2023-06-27T23:22:59.914Z,41.20
2023-06-27T23:25:27.339Z,40.89
2023-06-27T23:27:54.535Z,41.41
2023-06-27T23:30:21.668Z,40.85
2023-06-27T23:32:52.412Z,41.23
2023-06-27T23:35:19.614Z,40.80
2023-06-27T23:37:48.178Z,40.82
2023-06-27T23:40:15.351Z,41.08
2023-06-27T23:42:42.539Z,40.89
2023-06-27T23:45:10.382Z,41.29
2023-06-27T23:47:37.558Z,40.95
2023-06-27T23:50:06.073Z,41.07
2023-06-27T23:52:33.250Z,41.14
2023-06-27T23:55:01.772Z,40.94
2023-06-27T23:57:28.941Z,41.21
2023-06-27T23:59:56.107Z,41.53
